sensor_id;sensor_type;location;lat;lon;timestamp;P1;durP1;ratioP1;P2;durP2;ratioP2
43504;SDS011;29098;48.184;16.298;2023-06-22T00:01:01;13.85;;;5.60;;
43504;SDS011;29098;48.184;16.298;2023-06-22T00:03:27;10.45;;;4.28;;
43504;SDS011;29098;48.184;16.298;2023-06-22T00:05:52;7.85;;;4.20;;
43504;SDS011;29098;48.184;16.298;2023-06-22T00:08:18;8.70;;;4.65;;
43504;SDS011;29098;48.184;16.298;2023-06-22T00:10:45;9.07;;;4.60;;
43504;SDS011;29098;48.184;16.298;2023-06-22T00:13:11;11.18;;;4.25;;
43504;SDS011;29098;48.184;16.298;2023-06-22T00:15:38;8.38;;;3.97;;
43504;SDS011;29098;48.184;16.298;2023-06-22T00:18:09;9.45;;;4.57;;
43504;SDS011;29098;48.184;16.298;2023-06-22T00:20:37;16.08;;;4.18;;
43504;SDS011;29098;48.184;16.298;2023-06-22T00:23:03;11.02;;;4.53;;
43504;SDS011;29098;48.184;16.298;2023-06-22T00:25:39;11.77;;;4.28;;
43504;SDS011;29098;48.184;16.298;2023-06-22T00:28:05;9.82;;;4.10;;
43504;SDS011;29098;48.184;16.298;2023-06-22T00:30:32;11.35;;;5.70;;
43504;SDS011;29098;48.184;16.298;2023-06-22T00:32:58;6.80;;;3.80;;
43504;SDS011;29098;48.184;16.298;2023-06-22T00:35:24;10.50;;;4.70;;
43504;SDS011;29098;48.184;16.298;2023-06-22T00:37:58;9.15;;;4.43;;
43504;SDS011;29098;48.184;16.298;2023-06-22T00:40:29;8.63;;;4.18;;
43504;SDS011;29098;48.184;16.298;2023-06-22T00:42:58;6.80;;;4.78;;
43504;SDS011;29098;48.184;16.298;2023-06-22T00:45:24;14.00;;;4.15;;
43504;SDS011;29098;48.184;16.298;2023-06-22T00:47:53;9.43;;;4.25;;
43504;SDS011;29098;48.184;16.298;2023-06-22T00:50:21;8.80;;;5.07;;
43504;SDS011;29098;48.184;16.298;2023-06-22T00:52:53;12.50;;;5.10;;
43504;SDS011;29098;48.184;16.298;2023-06-22T00:55:23;12.63;;;4.50;;
43504;SDS011;29098;48.184;16.298;2023-06-22T00:57:50;8.63;;;4.18;;
43504;SDS011;29098;48.184;16.298;2023-06-22T01:00:20;8.63;;;4.65;;
43504;SDS011;29098;48.184;16.298;2023-06-22T01:02:49;9.50;;;4.28;;
43504;SDS011;29098;48.184;16.298;2023-06-22T01:05:18;8.32;;;3.92;;
43504;SDS011;29098;48.184;16.298;2023-06-22T01:13:08;9.25;;;4.60;;
43504;SDS011;29098;48.184;16.298;2023-06-22T01:18:11;11.32;;;5.88;;
43504;SDS011;29098;48.184;16.298;2023-06-22T01:20:38;10.93;;;5.07;;
43504;SDS011;29098;48.184;16.298;2023-06-22T01:23:10;10.05;;;4.22;;
43504;SDS011;29098;48.184;16.298;2023-06-22T01:28:41;10.30;;;5.57;;
43504;SDS011;29098;48.184;16.298;2023-06-22T01:31:10;8.25;;;4.85;;
43504;SDS011;29098;48.184;16.298;2023-06-22T01:33:41;9.07;;;4.32;;
43504;SDS011;29098;48.184;16.298;2023-06-22T01:36:07;11.20;;;4.82;;
43504;SDS011;29098;48.184;16.298;2023-06-22T01:38:38;7.70;;;4.80;;
43504;SDS011;29098;48.184;16.298;2023-06-22T01:41:04;9.13;;;4.10;;
43504;SDS011;29098;48.184;16.298;2023-06-22T01:43:30;11.93;;;4.55;;
43504;SDS011;29098;48.184;16.298;2023-06-22T01:46:00;10.90;;;3.72;;
43504;SDS011;29098;48.184;16.298;2023-06-22T01:48:27;9.43;;;4.97;;
43504;SDS011;29098;48.184;16.298;2023-06-22T01:50:53;10.55;;;4.47;;
43504;SDS011;29098;48.184;16.298;2023-06-22T01:53:20;8.98;;;4.50;;
43504;SDS011;29098;48.184;16.298;2023-06-22T01:55:49;6.72;;;4.38;;
43504;SDS011;29098;48.184;16.298;2023-06-22T01:58:15;9.50;;;4.65;;
43504;SDS011;29098;48.184;16.298;2023-06-22T02:00:42;9.20;;;4.53;;
43504;SDS011;29098;48.184;16.298;2023-06-22T02:03:14;8.63;;;4.85;;
43504;SDS011;29098;48.184;16.298;2023-06-22T02:05:52;12.80;;;5.13;;
43504;SDS011;29098;48.184;16.298;2023-06-22T02:08:25;10.27;;;4.15;;
43504;SDS011;29098;48.184;16.298;2023-06-22T02:10:55;10.18;;;4.47;;
43504;SDS011;29098;48.184;16.298;2023-06-22T02:13:23;10.77;;;5.05;;
43504;SDS011;29098;48.184;16.298;2023-06-22T02:15:49;6.45;;;4.30;;
43504;SDS011;29098;48.184;16.298;2023-06-22T02:18:16;7.78;;;4.03;;
43504;SDS011;29098;48.184;16.298;2023-06-22T02:20:41;8.48;;;4.93;;
43504;SDS011;29098;48.184;16.298;2023-06-22T02:23:06;9.60;;;4.68;;
43504;SDS011;29098;48.184;16.298;2023-06-22T02:25:33;10.65;;;5.00;;
43504;SDS011;29098;48.184;16.298;2023-06-22T02:27:58;10.35;;;5.05;;
43504;SDS011;29098;48.184;16.298;2023-06-22T02:30:24;6.25;;;4.25;;
43504;SDS011;29098;48.184;16.298;2023-06-22T02:32:49;9.35;;;4.80;;
43504;SDS011;29098;48.184;16.298;2023-06-22T02:35:23;9.70;;;5.45;;
43504;SDS011;29098;48.184;16.298;2023-06-22T02:37:49;7.43;;;3.95;;
43504;SDS011;29098;48.184;16.298;2023-06-22T02:40:16;6.82;;;3.83;;
43504;SDS011;29098;48.184;16.298;2023-06-22T02:42:42;10.00;;;3.88;;
43504;SDS011;29098;48.184;16.298;2023-06-22T02:45:08;8.88;;;4.25;;
43504;SDS011;29098;48.184;16.298;2023-06-22T02:47:34;10.88;;;4.35;;
43504;SDS011;29098;48.184;16.298;2023-06-22T02:49:59;8.45;;;4.45;;
43504;SDS011;29098;48.184;16.298;2023-06-22T02:52:27;8.38;;;4.30;;
43504;SDS011;29098;48.184;16.298;2023-06-22T02:54:53;9.45;;;4.80;;
43504;SDS011;29098;48.184;16.298;2023-06-22T02:57:18;11.27;;;5.20;;
43504;SDS011;29098;48.184;16.298;2023-06-22T02:59:44;8.77;;;4.40;;
43504;SDS011;29098;48.184;16.298;2023-06-22T03:02:09;10.95;;;4.70;;
43504;SDS011;29098;48.184;16.298;2023-06-22T03:04:36;9.48;;;5.13;;
43504;SDS011;29098;48.184;16.298;2023-06-22T03:07:01;8.18;;;4.72;;
43504;SDS011;29098;48.184;16.298;2023-06-22T03:09:27;7.93;;;4.20;;
43504;SDS011;29098;48.184;16.298;2023-06-22T03:11:54;6.18;;;4.00;;
43504;SDS011;29098;48.184;16.298;2023-06-22T03:14:20;9.55;;;4.13;;
43504;SDS011;29098;48.184;16.298;2023-06-22T03:16:45;9.25;;;4.90;;
43504;SDS011;29098;48.184;16.298;2023-06-22T03:19:11;7.13;;;4.35;;
43504;SDS011;29098;48.184;16.298;2023-06-22T03:21:39;7.97;;;5.10;;
43504;SDS011;29098;48.184;16.298;2023-06-22T03:24:05;13.10;;;5.25;;
43504;SDS011;29098;48.184;16.298;2023-06-22T03:26:35;9.10;;;4.28;;
43504;SDS011;29098;48.184;16.298;2023-06-22T03:29:01;8.93;;;4.90;;
43504;SDS011;29098;48.184;16.298;2023-06-22T03:31:26;7.35;;;4.28;;
43504;SDS011;29098;48.184;16.298;2023-06-22T03:33:52;8.77;;;4.85;;
43504;SDS011;29098;48.184;16.298;2023-06-22T03:36:17;8.30;;;4.50;;
43504;SDS011;29098;48.184;16.298;2023-06-22T03:38:47;8.73;;;4.40;;
43504;SDS011;29098;48.184;16.298;2023-06-22T03:41:13;7.43;;;4.25;;
43504;SDS011;29098;48.184;16.298;2023-06-22T03:43:39;10.77;;;5.15;;
43504;SDS011;29098;48.184;16.298;2023-06-22T03:46:05;11.52;;;4.75;;
43504;SDS011;29098;48.184;16.298;2023-06-22T03:48:31;9.00;;;4.65;;
43504;SDS011;29098;48.184;16.298;2023-06-22T03:50:56;10.00;;;4.20;;
43504;SDS011;29098;48.184;16.298;2023-06-22T03:53:22;6.95;;;3.45;;
43504;SDS011;29098;48.184;16.298;2023-06-22T03:55:48;9.32;;;4.70;;
43504;SDS011;29098;48.184;16.298;2023-06-22T03:58:15;8.65;;;4.72;;
43504;SDS011;29098;48.184;16.298;2023-06-22T04:00:41;9.95;;;4.53;;
43504;SDS011;29098;48.184;16.298;2023-06-22T04:03:06;10.07;;;4.40;;
43504;SDS011;29098;48.184;16.298;2023-06-22T04:05:32;9.20;;;4.25;;
43504;SDS011;29098;48.184;16.298;2023-06-22T04:07:58;7.63;;;4.38;;
43504;SDS011;29098;48.184;16.298;2023-06-22T04:10:23;8.73;;;4.65;;
43504;SDS011;29098;48.184;16.298;2023-06-22T04:12:49;8.13;;;4.25;;
43504;SDS011;29098;48.184;16.298;2023-06-22T04:15:14;7.97;;;4.05;;
43504;SDS011;29098;48.184;16.298;2023-06-22T04:17:39;7.72;;;4.38;;
43504;SDS011;29098;48.184;16.298;2023-06-22T04:20:05;11.68;;;4.95;;
43504;SDS011;29098;48.184;16.298;2023-06-22T04:22:32;7.50;;;4.03;;
43504;SDS011;29098;48.184;16.298;2023-06-22T04:24:57;9.85;;;4.78;;
43504;SDS011;29098;48.184;16.298;2023-06-22T04:27:22;7.43;;;4.47;;
43504;SDS011;29098;48.184;16.298;2023-06-22T04:29:48;7.93;;;4.30;;
43504;SDS011;29098;48.184;16.298;2023-06-22T04:32:17;9.60;;;4.60;;
43504;SDS011;29098;48.184;16.298;2023-06-22T04:34:43;9.40;;;4.43;;
43504;SDS011;29098;48.184;16.298;2023-06-22T04:37:09;11.32;;;4.50;;
43504;SDS011;29098;48.184;16.298;2023-06-22T04:39:34;10.07;;;4.70;;
43504;SDS011;29098;48.184;16.298;2023-06-22T04:42:00;7.35;;;4.10;;
43504;SDS011;29098;48.184;16.298;2023-06-22T04:44:26;10.25;;;4.35;;
43504;SDS011;29098;48.184;16.298;2023-06-22T04:46:56;6.35;;;4.22;;
43504;SDS011;29098;48.184;16.298;2023-06-22T04:49:27;9.30;;;5.05;;
43504;SDS011;29098;48.184;16.298;2023-06-22T04:54:28;8.80;;;4.72;;
43504;SDS011;29098;48.184;16.298;2023-06-22T04:56:53;12.05;;;4.63;;
43504;SDS011;29098;48.184;16.298;2023-06-22T04:59:26;9.85;;;4.95;;
43504;SDS011;29098;48.184;16.298;2023-06-22T05:01:53;10.00;;;5.47;;
43504;SDS011;29098;48.184;16.298;2023-06-22T05:04:21;8.60;;;4.63;;
43504;SDS011;29098;48.184;16.298;2023-06-22T05:06:51;9.98;;;4.97;;
43504;SDS011;29098;48.184;16.298;2023-06-22T05:09:17;14.48;;;5.65;;
43504;SDS011;29098;48.184;16.298;2023-06-22T05:11:45;11.32;;;4.75;;
43504;SDS011;29098;48.184;16.298;2023-06-22T05:14:11;11.95;;;6.15;;
43504;SDS011;29098;48.184;16.298;2023-06-22T05:16:37;9.30;;;4.75;;
43504;SDS011;29098;48.184;16.298;2023-06-22T05:19:03;8.07;;;4.32;;
43504;SDS011;29098;48.184;16.298;2023-06-22T05:21:29;13.98;;;5.30;;
43504;SDS011;29098;48.184;16.298;2023-06-22T05:23:55;8.70;;;4.65;;
43504;SDS011;29098;48.184;16.298;2023-06-22T05:26:25;9.35;;;4.85;;
43504;SDS011;29098;48.184;16.298;2023-06-22T05:28:54;9.85;;;4.65;;
43504;SDS011;29098;48.184;16.298;2023-06-22T05:31:19;9.73;;;4.38;;
43504;SDS011;29098;48.184;16.298;2023-06-22T05:33:46;10.35;;;5.00;;
43504;SDS011;29098;48.184;16.298;2023-06-22T05:36:12;10.65;;;4.38;;
43504;SDS011;29098;48.184;16.298;2023-06-22T05:38:38;6.70;;;4.55;;
43504;SDS011;29098;48.184;16.298;2023-06-22T05:41:04;11.40;;;5.45;;
43504;SDS011;29098;48.184;16.298;2023-06-22T05:43:30;9.70;;;5.07;;
43504;SDS011;29098;48.184;16.298;2023-06-22T05:45:55;8.43;;;5.43;;
43504;SDS011;29098;48.184;16.298;2023-06-22T05:48:21;13.65;;;6.05;;
43504;SDS011;29098;48.184;16.298;2023-06-22T05:50:46;12.20;;;5.85;;
43504;SDS011;29098;48.184;16.298;2023-06-22T05:53:12;12.43;;;5.30;;
43504;SDS011;29098;48.184;16.298;2023-06-22T05:55:37;10.13;;;5.25;;
43504;SDS011;29098;48.184;16.298;2023-06-22T05:58:03;17.15;;;6.03;;
43504;SDS011;29098;48.184;16.298;2023-06-22T06:00:29;10.50;;;5.18;;
43504;SDS011;29098;48.184;16.298;2023-06-22T06:02:54;14.77;;;5.00;;
43504;SDS011;29098;48.184;16.298;2023-06-22T06:05:20;12.90;;;5.47;;
43504;SDS011;29098;48.184;16.298;2023-06-22T06:07:46;16.70;;;5.50;;
43504;SDS011;29098;48.184;16.298;2023-06-22T06:10:11;7.65;;;4.32;;
43504;SDS011;29098;48.184;16.298;2023-06-22T06:12:37;11.93;;;4.78;;
43504;SDS011;29098;48.184;16.298;2023-06-22T06:15:03;11.00;;;5.32;;
43504;SDS011;29098;48.184;16.298;2023-06-22T06:17:29;9.90;;;4.72;;
43504;SDS011;29098;48.184;16.298;2023-06-22T06:19:55;9.15;;;4.72;;
43504;SDS011;29098;48.184;16.298;2023-06-22T06:22:20;12.98;;;4.28;;
43504;SDS011;29098;48.184;16.298;2023-06-22T06:24:48;11.30;;;4.70;;
43504;SDS011;29098;48.184;16.298;2023-06-22T06:27:15;14.80;;;4.45;;
43504;SDS011;29098;48.184;16.298;2023-06-22T06:29:43;11.85;;;5.30;;
43504;SDS011;29098;48.184;16.298;2023-06-22T06:32:10;11.82;;;4.55;;
43504;SDS011;29098;48.184;16.298;2023-06-22T06:34:36;13.77;;;5.43;;
43504;SDS011;29098;48.184;16.298;2023-06-22T06:37:01;9.45;;;5.10;;
43504;SDS011;29098;48.184;16.298;2023-06-22T06:39:27;10.45;;;5.40;;
43504;SDS011;29098;48.184;16.298;2023-06-22T06:41:52;11.15;;;5.45;;
43504;SDS011;29098;48.184;16.298;2023-06-22T06:44:17;11.05;;;6.07;;
43504;SDS011;29098;48.184;16.298;2023-06-22T06:46:43;11.63;;;6.68;;
43504;SDS011;29098;48.184;16.298;2023-06-22T06:49:08;9.88;;;5.13;;
43504;SDS011;29098;48.184;16.298;2023-06-22T06:51:34;14.70;;;5.85;;
43504;SDS011;29098;48.184;16.298;2023-06-22T06:53:59;14.13;;;5.28;;
43504;SDS011;29098;48.184;16.298;2023-06-22T06:56:25;11.35;;;5.43;;
43504;SDS011;29098;48.184;16.298;2023-06-22T06:58:50;15.15;;;6.78;;
43504;SDS011;29098;48.184;16.298;2023-06-22T07:01:16;11.30;;;6.53;;
43504;SDS011;29098;48.184;16.298;2023-06-22T07:03:42;13.18;;;6.13;;
43504;SDS011;29098;48.184;16.298;2023-06-22T07:06:08;18.95;;;6.70;;
43504;SDS011;29098;48.184;16.298;2023-06-22T07:08:33;16.90;;;7.22;;
43504;SDS011;29098;48.184;16.298;2023-06-22T07:11:01;15.75;;;7.50;;
43504;SDS011;29098;48.184;16.298;2023-06-22T07:13:26;11.60;;;6.72;;
43504;SDS011;29098;48.184;16.298;2023-06-22T07:15:52;11.77;;;7.35;;
43504;SDS011;29098;48.184;16.298;2023-06-22T07:18:17;16.42;;;7.65;;
43504;SDS011;29098;48.184;16.298;2023-06-22T07:20:43;16.45;;;7.47;;
43504;SDS011;29098;48.184;16.298;2023-06-22T07:23:08;13.95;;;7.78;;
43504;SDS011;29098;48.184;16.298;2023-06-22T07:25:33;17.63;;;11.40;;
43504;SDS011;29098;48.184;16.298;2023-06-22T07:28:03;17.48;;;11.35;;
43504;SDS011;29098;48.184;16.298;2023-06-22T07:30:30;17.45;;;10.23;;
43504;SDS011;29098;48.184;16.298;2023-06-22T07:32:57;20.85;;;11.13;;
43504;SDS011;29098;48.184;16.298;2023-06-22T07:35:23;15.52;;;10.23;;
43504;SDS011;29098;48.184;16.298;2023-06-22T07:37:58;19.70;;;10.93;;
43504;SDS011;29098;48.184;16.298;2023-06-22T07:40:24;21.05;;;11.68;;
43504;SDS011;29098;48.184;16.298;2023-06-22T07:42:50;18.15;;;11.57;;
43504;SDS011;29098;48.184;16.298;2023-06-22T07:45:16;20.95;;;10.80;;
43504;SDS011;29098;48.184;16.298;2023-06-22T07:47:42;17.60;;;10.75;;
43504;SDS011;29098;48.184;16.298;2023-06-22T07:50:08;19.75;;;10.27;;
43504;SDS011;29098;48.184;16.298;2023-06-22T07:52:34;17.85;;;10.82;;
43504;SDS011;29098;48.184;16.298;2023-06-22T07:55:01;17.75;;;11.40;;
43504;SDS011;29098;48.184;16.298;2023-06-22T07:57:27;24.67;;;10.63;;
43504;SDS011;29098;48.184;16.298;2023-06-22T07:59:58;18.98;;;9.75;;
43504;SDS011;29098;48.184;16.298;2023-06-22T08:02:38;28.85;;;10.52;;
43504;SDS011;29098;48.184;16.298;2023-06-22T08:05:04;17.60;;;10.40;;
43504;SDS011;29098;48.184;16.298;2023-06-22T08:07:31;18.17;;;8.95;;
43504;SDS011;29098;48.184;16.298;2023-06-22T08:09:58;19.45;;;10.60;;
43504;SDS011;29098;48.184;16.298;2023-06-22T08:12:23;18.48;;;10.77;;
43504;SDS011;29098;48.184;16.298;2023-06-22T08:14:49;16.27;;;9.35;;
43504;SDS011;29098;48.184;16.298;2023-06-22T08:17:15;17.90;;;10.02;;
43504;SDS011;29098;48.184;16.298;2023-06-22T08:19:40;15.93;;;9.63;;
43504;SDS011;29098;48.184;16.298;2023-06-22T08:22:06;19.17;;;9.98;;
43504;SDS011;29098;48.184;16.298;2023-06-22T08:24:31;14.77;;;9.07;;
43504;SDS011;29098;48.184;16.298;2023-06-22T08:26:57;18.67;;;9.88;;
43504;SDS011;29098;48.184;16.298;2023-06-22T08:29:22;17.73;;;9.57;;
43504;SDS011;29098;48.184;16.298;2023-06-22T08:31:48;19.05;;;9.85;;
43504;SDS011;29098;48.184;16.298;2023-06-22T08:34:13;16.58;;;9.77;;
43504;SDS011;29098;48.184;16.298;2023-06-22T08:36:38;15.13;;;9.50;;
43504;SDS011;29098;48.184;16.298;2023-06-22T08:39:09;14.23;;;10.35;;
43504;SDS011;29098;48.184;16.298;2023-06-22T08:41:35;15.52;;;9.18;;
43504;SDS011;29098;48.184;16.298;2023-06-22T08:44:00;14.57;;;9.90;;
43504;SDS011;29098;48.184;16.298;2023-06-22T08:46:26;18.77;;;9.57;;
43504;SDS011;29098;48.184;16.298;2023-06-22T08:48:55;16.40;;;9.63;;
43504;SDS011;29098;48.184;16.298;2023-06-22T08:51:22;16.42;;;9.32;;
43504;SDS011;29098;48.184;16.298;2023-06-22T08:53:48;16.80;;;9.05;;
43504;SDS011;29098;48.184;16.298;2023-06-22T08:56:13;14.98;;;9.30;;
43504;SDS011;29098;48.184;16.298;2023-06-22T08:58:41;14.60;;;9.27;;
43504;SDS011;29098;48.184;16.298;2023-06-22T09:01:06;18.85;;;9.07;;
43504;SDS011;29098;48.184;16.298;2023-06-22T09:03:32;15.50;;;8.98;;
43504;SDS011;29098;48.184;16.298;2023-06-22T09:06:00;15.98;;;9.63;;
43504;SDS011;29098;48.184;16.298;2023-06-22T09:08:25;18.95;;;9.63;;
43504;SDS011;29098;48.184;16.298;2023-06-22T09:10:50;14.73;;;8.82;;
43504;SDS011;29098;48.184;16.298;2023-06-22T09:13:16;13.73;;;8.93;;
43504;SDS011;29098;48.184;16.298;2023-06-22T09:15:43;13.40;;;9.07;;
43504;SDS011;29098;48.184;16.298;2023-06-22T09:18:13;17.70;;;8.80;;
43504;SDS011;29098;48.184;16.298;2023-06-22T09:20:38;15.20;;;8.35;;
43504;SDS011;29098;48.184;16.298;2023-06-22T09:23:04;12.40;;;8.10;;
43504;SDS011;29098;48.184;16.298;2023-06-22T09:25:29;11.23;;;8.25;;
43504;SDS011;29098;48.184;16.298;2023-06-22T09:27:55;15.38;;;7.75;;
43504;SDS011;29098;48.184;16.298;2023-06-22T09:30:21;16.75;;;7.82;;
43504;SDS011;29098;48.184;16.298;2023-06-22T09:32:46;12.52;;;7.47;;
43504;SDS011;29098;48.184;16.298;2023-06-22T09:35:12;14.05;;;8.95;;
43504;SDS011;29098;48.184;16.298;2023-06-22T09:37:38;15.00;;;8.10;;
43504;SDS011;29098;48.184;16.298;2023-06-22T09:40:05;15.77;;;7.88;;
43504;SDS011;29098;48.184;16.298;2023-06-22T09:42:35;16.92;;;8.38;;
43504;SDS011;29098;48.184;16.298;2023-06-22T09:45:00;13.85;;;7.72;;
43504;SDS011;29098;48.184;16.298;2023-06-22T09:47:26;19.15;;;9.00;;
43504;SDS011;29098;48.184;16.298;2023-06-22T09:49:52;14.05;;;8.40;;
43504;SDS011;29098;48.184;16.298;2023-06-22T09:52:20;16.85;;;8.43;;
43504;SDS011;29098;48.184;16.298;2023-06-22T09:54:45;13.70;;;9.00;;
43504;SDS011;29098;48.184;16.298;2023-06-22T09:57:11;15.40;;;9.43;;
43504;SDS011;29098;48.184;16.298;2023-06-22T09:59:36;18.58;;;9.80;;
43504;SDS011;29098;48.184;16.298;2023-06-22T10:02:02;18.20;;;8.73;;
43504;SDS011;29098;48.184;16.298;2023-06-22T10:04:27;17.20;;;7.90;;
43504;SDS011;29098;48.184;16.298;2023-06-22T10:06:52;14.48;;;7.32;;
43504;SDS011;29098;48.184;16.298;2023-06-22T10:09:18;13.52;;;7.20;;
43504;SDS011;29098;48.184;16.298;2023-06-22T10:11:43;19.58;;;8.15;;
43504;SDS011;29098;48.184;16.298;2023-06-22T10:14:09;14.23;;;7.68;;
43504;SDS011;29098;48.184;16.298;2023-06-22T10:16:36;13.77;;;7.05;;
43504;SDS011;29098;48.184;16.298;2023-06-22T10:19:01;12.40;;;7.20;;
43504;SDS011;29098;48.184;16.298;2023-06-22T10:21:27;15.90;;;7.60;;
43504;SDS011;29098;48.184;16.298;2023-06-22T10:23:53;13.80;;;7.68;;
43504;SDS011;29098;48.184;16.298;2023-06-22T10:26:20;13.55;;;8.73;;
43504;SDS011;29098;48.184;16.298;2023-06-22T10:28:47;13.32;;;7.80;;
43504;SDS011;29098;48.184;16.298;2023-06-22T10:31:13;14.98;;;6.90;;
43504;SDS011;29098;48.184;16.298;2023-06-22T10:33:39;11.45;;;7.18;;
43504;SDS011;29098;48.184;16.298;2023-06-22T10:36:06;10.90;;;6.80;;
43504;SDS011;29098;48.184;16.298;2023-06-22T10:38:32;18.90;;;5.82;;
43504;SDS011;29098;48.184;16.298;2023-06-22T10:40:57;12.50;;;5.15;;
43504;SDS011;29098;48.184;16.298;2023-06-22T10:43:22;10.43;;;4.80;;
43504;SDS011;29098;48.184;16.298;2023-06-22T10:45:48;10.25;;;4.95;;
43504;SDS011;29098;48.184;16.298;2023-06-22T10:48:13;13.25;;;5.00;;
43504;SDS011;29098;48.184;16.298;2023-06-22T10:50:39;14.68;;;4.60;;
43504;SDS011;29098;48.184;16.298;2023-06-22T10:53:04;10.55;;;5.03;;
43504;SDS011;29098;48.184;16.298;2023-06-22T10:55:37;11.48;;;4.70;;
43504;SDS011;29098;48.184;16.298;2023-06-22T10:58:02;13.68;;;5.07;;
43504;SDS011;29098;48.184;16.298;2023-06-22T11:00:27;9.43;;;4.15;;
43504;SDS011;29098;48.184;16.298;2023-06-22T11:02:55;10.13;;;4.60;;
43504;SDS011;29098;48.184;16.298;2023-06-22T11:05:23;9.27;;;4.85;;
43504;SDS011;29098;48.184;16.298;2023-06-22T11:07:49;8.30;;;4.15;;
43504;SDS011;29098;48.184;16.298;2023-06-22T11:10:16;15.20;;;5.13;;
43504;SDS011;29098;48.184;16.298;2023-06-22T11:12:42;10.23;;;4.28;;
43504;SDS011;29098;48.184;16.298;2023-06-22T11:15:08;12.75;;;5.38;;
43504;SDS011;29098;48.184;16.298;2023-06-22T11:17:34;14.25;;;5.55;;
43504;SDS011;29098;48.184;16.298;2023-06-22T11:20:00;10.55;;;4.30;;
43504;SDS011;29098;48.184;16.298;2023-06-22T11:22:26;15.63;;;5.05;;
43504;SDS011;29098;48.184;16.298;2023-06-22T11:24:52;10.35;;;5.10;;
43504;SDS011;29098;48.184;16.298;2023-06-22T11:27:17;11.07;;;6.15;;
43504;SDS011;29098;48.184;16.298;2023-06-22T11:29:43;13.63;;;6.35;;
43504;SDS011;29098;48.184;16.298;2023-06-22T11:32:08;9.18;;;4.80;;
43504;SDS011;29098;48.184;16.298;2023-06-22T11:34:35;12.10;;;5.72;;
43504;SDS011;29098;48.184;16.298;2023-06-22T11:37:00;10.82;;;5.65;;
43504;SDS011;29098;48.184;16.298;2023-06-22T11:39:26;11.48;;;6.10;;
43504;SDS011;29098;48.184;16.298;2023-06-22T11:41:51;13.95;;;6.18;;
43504;SDS011;29098;48.184;16.298;2023-06-22T11:44:17;8.43;;;5.63;;
43504;SDS011;29098;48.184;16.298;2023-06-22T11:46:43;9.30;;;5.40;;
43504;SDS011;29098;48.184;16.298;2023-06-22T11:49:08;8.52;;;5.30;;
43504;SDS011;29098;48.184;16.298;2023-06-22T11:51:34;11.93;;;5.65;;
43504;SDS011;29098;48.184;16.298;2023-06-22T11:53:59;9.50;;;5.20;;
43504;SDS011;29098;48.184;16.298;2023-06-22T11:56:25;8.55;;;4.53;;
43504;SDS011;29098;48.184;16.298;2023-06-22T11:58:50;10.70;;;5.40;;
43504;SDS011;29098;48.184;16.298;2023-06-22T12:01:16;14.27;;;5.28;;
43504;SDS011;29098;48.184;16.298;2023-06-22T12:03:41;8.10;;;4.18;;
43504;SDS011;29098;48.184;16.298;2023-06-22T12:06:08;12.00;;;4.90;;
43504;SDS011;29098;48.184;16.298;2023-06-22T12:08:34;11.77;;;5.07;;
43504;SDS011;29098;48.184;16.298;2023-06-22T12:10:59;10.57;;;4.50;;
43504;SDS011;29098;48.184;16.298;2023-06-22T12:13:25;9.50;;;4.22;;
43504;SDS011;29098;48.184;16.298;2023-06-22T12:15:50;10.82;;;4.57;;
43504;SDS011;29098;48.184;16.298;2023-06-22T12:18:17;10.23;;;4.00;;
43504;SDS011;29098;48.184;16.298;2023-06-22T12:20:45;11.68;;;5.07;;
43504;SDS011;29098;48.184;16.298;2023-06-22T12:23:11;11.68;;;4.65;;
43504;SDS011;29098;48.184;16.298;2023-06-22T12:25:36;10.48;;;4.95;;
43504;SDS011;29098;48.184;16.298;2023-06-22T12:28:02;10.40;;;5.40;;
43504;SDS011;29098;48.184;16.298;2023-06-22T12:30:31;10.15;;;5.00;;
43504;SDS011;29098;48.184;16.298;2023-06-22T12:32:58;7.22;;;3.83;;
43504;SDS011;29098;48.184;16.298;2023-06-22T12:35:23;13.32;;;4.85;;
43504;SDS011;29098;48.184;16.298;2023-06-22T12:37:49;12.18;;;4.70;;
43504;SDS011;29098;48.184;16.298;2023-06-22T12:40:14;12.80;;;4.78;;
43504;SDS011;29098;48.184;16.298;2023-06-22T12:42:40;8.10;;;4.68;;
43504;SDS011;29098;48.184;16.298;2023-06-22T12:45:06;13.13;;;3.97;;
43504;SDS011;29098;48.184;16.298;2023-06-22T12:47:32;11.27;;;4.93;;
43504;SDS011;29098;48.184;16.298;2023-06-22T12:49:58;6.45;;;4.30;;
43504;SDS011;29098;48.184;16.298;2023-06-22T12:52:23;11.30;;;4.65;;
43504;SDS011;29098;48.184;16.298;2023-06-22T12:54:49;10.43;;;5.18;;
43504;SDS011;29098;48.184;16.298;2023-06-22T12:57:14;9.45;;;5.07;;
43504;SDS011;29098;48.184;16.298;2023-06-22T12:59:40;10.15;;;5.78;;
43504;SDS011;29098;48.184;16.298;2023-06-22T13:02:05;10.20;;;4.85;;
43504;SDS011;29098;48.184;16.298;2023-06-22T13:04:31;11.27;;;5.03;;
43504;SDS011;29098;48.184;16.298;2023-06-22T13:06:56;10.20;;;5.32;;
43504;SDS011;29098;48.184;16.298;2023-06-22T13:09:22;8.80;;;4.43;;
43504;SDS011;29098;48.184;16.298;2023-06-22T13:11:47;11.52;;;4.78;;
43504;SDS011;29098;48.184;16.298;2023-06-22T13:14:13;12.80;;;5.47;;
43504;SDS011;29098;48.184;16.298;2023-06-22T13:16:38;11.45;;;5.15;;
43504;SDS011;29098;48.184;16.298;2023-06-22T13:19:04;11.13;;;4.97;;
43504;SDS011;29098;48.184;16.298;2023-06-22T13:21:30;9.82;;;4.50;;
43504;SDS011;29098;48.184;16.298;2023-06-22T13:23:55;9.43;;;5.28;;
43504;SDS011;29098;48.184;16.298;2023-06-22T13:29:15;9.40;;;5.03;;
43504;SDS011;29098;48.184;16.298;2023-06-22T13:31:41;9.32;;;5.03;;
43504;SDS011;29098;48.184;16.298;2023-06-22T13:34:07;9.98;;;5.57;;
43504;SDS011;29098;48.184;16.298;2023-06-22T13:36:32;9.35;;;5.13;;
43504;SDS011;29098;48.184;16.298;2023-06-22T13:38:58;9.55;;;4.50;;
43504;SDS011;29098;48.184;16.298;2023-06-22T13:41:23;13.00;;;5.30;;
43504;SDS011;29098;48.184;16.298;2023-06-22T13:43:48;11.32;;;5.47;;
43504;SDS011;29098;48.184;16.298;2023-06-22T13:46:14;14.80;;;4.80;;
43504;SDS011;29098;48.184;16.298;2023-06-22T13:48:39;14.00;;;6.07;;
43504;SDS011;29098;48.184;16.298;2023-06-22T13:51:05;10.50;;;5.30;;
43504;SDS011;29098;48.184;16.298;2023-06-22T13:53:31;10.20;;;5.57;;
43504;SDS011;29098;48.184;16.298;2023-06-22T13:55:56;11.65;;;5.05;;
43504;SDS011;29098;48.184;16.298;2023-06-22T13:58:22;12.55;;;6.25;;
43504;SDS011;29098;48.184;16.298;2023-06-22T14:00:47;9.90;;;5.60;;
43504;SDS011;29098;48.184;16.298;2023-06-22T14:03:14;10.13;;;5.07;;
43504;SDS011;29098;48.184;16.298;2023-06-22T14:05:41;9.55;;;5.35;;
43504;SDS011;29098;48.184;16.298;2023-06-22T14:08:07;9.43;;;5.88;;
43504;SDS011;29098;48.184;16.298;2023-06-22T14:10:32;10.75;;;5.13;;
43504;SDS011;29098;48.184;16.298;2023-06-22T14:12:58;12.27;;;5.53;;
43504;SDS011;29098;48.184;16.298;2023-06-22T14:15:25;11.63;;;5.55;;
43504;SDS011;29098;48.184;16.298;2023-06-22T14:17:50;11.90;;;6.75;;
43504;SDS011;29098;48.184;16.298;2023-06-22T14:20:16;11.20;;;6.25;;
43504;SDS011;29098;48.184;16.298;2023-06-22T14:22:41;11.48;;;6.20;;
43504;SDS011;29098;48.184;16.298;2023-06-22T14:25:07;16.30;;;7.10;;
43504;SDS011;29098;48.184;16.298;2023-06-22T14:27:33;10.57;;;5.20;;
43504;SDS011;29098;48.184;16.298;2023-06-22T14:29:58;14.20;;;6.38;;
43504;SDS011;29098;48.184;16.298;2023-06-22T14:32:23;9.82;;;5.25;;
43504;SDS011;29098;48.184;16.298;2023-06-22T14:34:50;9.95;;;5.88;;
43504;SDS011;29098;48.184;16.298;2023-06-22T14:37:15;13.77;;;5.60;;